Flight Track Log - Related Links

Times and Time Zones

All times are in EDT time to prevent confusion due to time zone crossing. See the JEX2505 flight status page for this flight to view local times or setup timezone preferences in your user account.

Time Position Orientation Groundspeed Altitude Reporting Facility
EDT Latitude Longitude Course Direction KTS MPH feet Rate Location/Type
Fri 01:28:00 AM 35.1528 135.7396 29° Northeast  Level Estimated
Fri 01:29:00 AM 35.2563 135.8111 29° Northeast  Level Estimated
Fri 01:30:00 AM 35.3597 135.8828 29° Northeast  Level Estimated
Fri 01:31:00 AM 35.4631 135.9547 30° Northeast  Level Estimated
Fri 01:32:00 AM 35.5665 136.0268 30° Northeast  Level Estimated
Fri 01:33:00 AM 35.6698 136.0990 30° Northeast  Level Estimated
Fri 01:34:00 AM 35.7730 136.1714 30° Northeast  Level Estimated
Fri 01:35:00 AM 35.8775 136.2450 30° Northeast  Level Estimated
Fri 01:36:00 AM 35.9820 136.3187 30° Northeast  Level Estimated
Fri 01:37:00 AM 36.0864 136.3926 30° Northeast  Level Estimated
Fri 01:38:00 AM 36.1907 136.4667 30° Northeast  Level Estimated
Fri 01:39:00 AM 36.2951 136.5410 30° Northeast  Level Estimated
Fri 01:40:00 AM 36.3993 136.6155 30° Northeast  Level Estimated
Fri 01:41:00 AM 36.5035 136.6902 30° Northeast  Level Estimated
Fri 01:42:00 AM 36.6077 136.7651 30° Northeast  Level Estimated
Fri 01:43:00 AM 36.7118 136.8402 30° Northeast  Level Estimated
Fri 01:44:00 AM 36.8159 136.9155 30° Northeast  Level Estimated
Fri 01:45:00 AM 36.9199 136.9910 30° Northeast  Level Estimated
Fri 01:46:00 AM 37.0239 137.0668 30° Northeast  Level Estimated
Fri 01:47:00 AM 37.1266 137.1418 30° Northeast  Level Estimated
Fri 01:48:00 AM 37.2292 137.2170 30° Northeast  Level Estimated
Fri 01:49:00 AM 37.3318 137.2924 30° Northeast  Level Estimated
Fri 01:50:00 AM 37.4343 137.3680 30° Northeast  Level Estimated
Fri 01:51:00 AM 37.5368 137.4438 30° Northeast  Level Estimated
Fri 01:52:00 AM 37.6392 137.5199 30° Northeast  Level Estimated
Fri 01:53:00 AM 37.7416 137.5961 30° Northeast  Level Estimated
Fri 01:54:00 AM 37.8439 137.6726 31° Northeast  Level Estimated
Fri 01:55:00 AM 37.9462 137.7493 31° Northeast  Level Estimated
Fri 01:56:00 AM 38.0485 137.8261 31° Northeast  Level Estimated
Fri 01:57:00 AM 38.1506 137.9032 31° Northeast  Level Estimated
Fri 01:58:00 AM 38.2528 137.9805 31° Northeast  Level Estimated
Fri 01:59:00 AM 38.3548 138.0581 31° Northeast  Level Estimated
Fri 02:00:00 AM 38.4569 138.1358 31° Northeast  Level Estimated
Fri 02:01:00 AM 38.5588 138.2138 31° Northeast  Level Estimated
Fri 02:02:00 AM 38.6608 138.2920 31° Northeast  Level Estimated
Fri 02:03:00 AM 38.7626 138.3704 31° Northeast  Level Estimated
Fri 02:04:00 AM 38.8645 138.4490 31° Northeast  Level Estimated
Fri 02:05:00 AM 38.9650 138.5269 31° Northeast  Level Estimated
Fri 02:06:00 AM 39.0655 138.6051 31° Northeast  Level Estimated
Fri 02:07:00 AM 39.1659 138.6834 31° Northeast  Level Estimated
Fri 02:08:00 AM 39.2663 138.7620 31° Northeast  Level Estimated
Fri 02:09:00 AM 39.3666 138.8408 31° Northeast  Level Estimated
Fri 02:10:00 AM 39.4669 138.9198 31° Northeast  Level Estimated
Fri 02:11:00 AM 39.5672 138.9991 31° Northeast  Level Estimated
Fri 02:12:00 AM 39.6673 139.0786 31° Northeast  Level Estimated
Fri 02:13:00 AM 39.7674 139.1583 31° Northeast  Level Estimated
Fri 02:14:00 AM 39.8675 139.2383 32° Northeast  Level Estimated
Fri 02:15:00 AM 39.9675 139.3185 32° Northeast  Level Estimated
Fri 02:16:00 AM 40.0675 139.3989 32° Northeast  Level Estimated
Fri 02:17:00 AM 40.1674 139.4795 32° Northeast  Level Estimated
Fri 02:18:00 AM 40.2672 139.5604 32° Northeast  Level Estimated
Fri 02:19:00 AM 40.3670 139.6416 32° Northeast  Level Estimated
Fri 02:20:00 AM 40.4667 139.7229 32° Northeast  Level Estimated
Fri 02:21:00 AM 40.5664 139.8046 32° Northeast  Level Estimated
Fri 02:22:00 AM 40.6660 139.8864 32° Northeast  Level Estimated
Fri 02:23:00 AM 40.7655 139.9685 32° Northeast  Level Estimated
Fri 02:24:00 AM 40.8650 140.0509 32° Northeast  Level Estimated
Fri 02:25:00 AM 40.9645 140.1335 32° Northeast  Level Estimated
Fri 02:26:00 AM 41.0638 140.2163 32° Northeast  Level Estimated
Fri 02:27:00 AM 41.1632 140.2994 32° Northeast  Level Estimated
Fri 02:28:00 AM 41.2624 140.3828 32° Northeast  Level Estimated
Fri 02:29:00 AM 41.3616 140.4664 32° Northeast  Level Estimated
Fri 02:30:00 AM 41.4607 140.5502 32° Northeast  Level Estimated
Fri 02:31:00 AM 41.5598 140.6344 32° Northeast  Level Estimated
Fri 02:32:00 AM 41.6588 140.7187 32° Northeast  Level Estimated
Fri 02:33:00 AM 41.7578 140.8033 33° Northeast  Level Estimated
Fri 02:34:00 AM 41.8567 140.8882 33° Northeast  Level Estimated
Fri 02:35:00 AM 41.9579 140.9755 33° Northeast  Level Estimated
Fri 02:36:00 AM 42.0567 141.0609 33° Northeast  Level Estimated
Fri 02:37:00 AM 42.1554 141.1466 33° Northeast  Level Estimated
Fri 02:38:00 AM 42.2540 141.2326 33° Northeast  Level Estimated
Fri 02:39:00 AM 42.3514 141.3178 33° Northeast  Level Estimated
Fri 02:40:00 AM 42.4488 141.4033 33° Northeast  Level Estimated
Fri 02:41:00 AM 42.5460 141.4890 33° Northeast  Level Estimated
Fri 02:42:00 AM 42.6432 141.5750 33° Northeast  Level Estimated
Fri 02:43:00 AM 42.7404 141.6613 33° Northeast  Level Estimated
Fri 02:44:00 AM 42.7752 141.6923 33° Northeast  Level Estimated
Fri 02:45:00 AM 42.7752 141.6923 North  Level Estimated
Fri 02:46:00 AM 42.7752 141.6923 North  Level Estimated
Fri 02:47:00 AM 42.7752 141.6923 North  Level Estimated
Fri 02:48:00 AM 42.7752 141.6923 North  Level Estimated
Fri 02:49:00 AM 42.7752 141.6923 North  Level Estimated
Fri 02:50:00 AM 42.7752 141.6923 North  Level Estimated
Fri 02:51:00 AM 42.7752 141.6923 North  Level Estimated
Fri 02:52:00 AM 42.7752 141.6923 North  Level Estimated
Fri 02:53:00 AM 42.7752 141.6923 North  Level Estimated
Fri 02:54:00 AM 42.7752 141.6923 North  Level Estimated
Fri 02:55:00 AM 42.7752 141.6923 North  Level Estimated
Fri 02:56:00 AM 42.7752 141.6923 North  Level Estimated
Fri 02:57:00 AM 42.7752 141.6923 North  Level Estimated
Fri 02:58:00 AM 42.7752 141.6923 North  Level Estimated

Login

Don't have an account? Register now (free) for customized features, flight alerts, and more!